createdAt,value
2018-08-11T00:04:49.099Z,99.90
2018-08-11T00:09:44.114Z,99.90
2018-08-11T00:14:39.042Z,99.90
2018-08-11T00:19:34.318Z,99.90
2018-08-11T00:24:29.343Z,99.90
2018-08-11T00:42:18.794Z,99.90
2018-08-11T00:47:14.032Z,99.90
2018-08-11T00:52:09.111Z,99.90
2018-08-11T00:57:04.217Z,99.90
2018-08-11T01:01:59.220Z,99.90
2018-08-11T01:06:54.292Z,99.90
2018-08-11T01:11:49.368Z,99.90
2018-08-11T01:16:44.496Z,99.90
2018-08-11T01:21:39.469Z,99.90
2018-08-11T01:26:34.397Z,99.90
2018-08-11T01:31:29.315Z,99.90
2018-08-11T01:36:24.328Z,99.90
2018-08-11T01:41:19.377Z,99.90
2018-08-11T01:46:14.470Z,99.90
2018-08-11T01:51:09.731Z,99.90
2018-08-11T01:56:04.741Z,99.90
2018-08-11T02:00:59.673Z,99.90
2018-08-11T02:05:54.689Z,99.90
2018-08-11T02:10:49.668Z,99.90
2018-08-11T02:15:44.762Z,99.90
2018-08-11T02:20:39.811Z,99.90
2018-08-11T02:25:34.930Z,99.90
2018-08-11T02:30:30.705Z,99.90
2018-08-11T02:35:25.749Z,99.90
2018-08-11T02:40:20.802Z,99.90
2018-08-11T02:45:17.510Z,99.90
2018-08-11T02:50:13.013Z,99.90
2018-08-11T02:55:08.155Z,99.90
2018-08-11T03:00:03.040Z,99.90
2018-08-11T03:04:57.983Z,99.90
2018-08-11T03:09:52.961Z,99.90
2018-08-11T03:14:47.880Z,99.90
2018-08-11T03:19:42.854Z,99.90
2018-08-11T03:24:37.812Z,99.90
2018-08-11T03:29:32.764Z,99.90
2018-08-11T03:34:27.840Z,99.90
2018-08-11T03:39:22.758Z,99.90
2018-08-11T03:44:17.989Z,99.90
2018-08-11T03:49:12.895Z,99.90
2018-08-11T03:54:07.908Z,99.90
2018-08-11T03:59:02.758Z,99.90
2018-08-11T04:03:57.699Z,99.90
2018-08-11T04:08:52.641Z,99.90
2018-08-11T04:13:47.627Z,99.90
2018-08-11T04:18:42.656Z,99.90
2018-08-11T04:23:37.561Z,99.90
2018-08-11T04:28:32.433Z,99.90
2018-08-11T04:33:27.365Z,99.90
2018-08-11T04:38:22.502Z,99.90
2018-08-11T04:43:17.520Z,99.90
2018-08-11T04:48:12.411Z,99.90
2018-08-11T04:53:07.428Z,99.90
2018-08-11T04:58:03.040Z,99.90
2018-08-11T05:02:57.950Z,99.90
2018-08-11T05:07:52.767Z,99.90
2018-08-11T05:12:47.586Z,99.90
2018-08-11T05:17:42.390Z,99.90
2018-08-11T05:22:37.292Z,99.90
2018-08-11T05:27:32.265Z,99.90
2018-08-11T05:32:27.316Z,99.90
2018-08-11T05:37:22.317Z,99.90
2018-08-11T05:42:17.374Z,99.90
2018-08-11T05:47:12.315Z,99.90
2018-08-11T05:52:07.352Z,99.90
2018-08-11T05:57:02.245Z,99.90
2018-08-11T06:01:57.300Z,99.90
2018-08-11T06:06:52.251Z,99.90
2018-08-11T06:11:47.146Z,99.90
2018-08-11T06:16:42.012Z,99.90
2018-08-11T06:21:36.947Z,99.90
2018-08-11T06:26:31.980Z,99.90
2018-08-11T06:31:27.125Z,99.90
2018-08-11T06:36:22.045Z,99.90
2018-08-11T06:41:16.972Z,99.90
2018-08-11T06:46:11.914Z,99.90
2018-08-11T06:51:06.896Z,99.90
2018-08-11T06:56:01.680Z,99.90
2018-08-11T07:00:56.364Z,99.90
2018-08-11T07:05:51.079Z,99.90
2018-08-11T07:10:46.664Z,99.90
2018-08-11T07:15:41.419Z,99.90
2018-08-11T07:20:36.150Z,99.90
2018-08-11T07:25:30.831Z,99.90
2018-08-11T07:30:25.686Z,99.90
2018-08-11T07:35:20.431Z,99.90
2018-08-11T07:40:24.948Z,99.90
2018-08-11T07:45:19.635Z,99.90
2018-08-11T07:50:14.419Z,99.90
2018-08-11T07:55:09.089Z,99.90
2018-08-11T08:00:03.797Z,99.90
2018-08-11T08:04:58.459Z,99.90
2018-08-11T08:09:53.134Z,99.90
2018-08-11T08:14:47.804Z,99.90
2018-08-11T08:19:42.487Z,99.90
2018-08-11T08:24:37.851Z,99.90
2018-08-11T08:29:32.538Z,99.90
2018-08-11T08:34:27.376Z,99.90
2018-08-11T08:39:22.104Z,99.90
2018-08-11T08:44:16.981Z,99.90
2018-08-11T08:49:11.688Z,99.90
2018-08-11T08:54:06.445Z,99.90
2018-08-11T08:59:01.126Z,99.90
2018-08-11T09:03:55.795Z,99.90
2018-08-11T09:21:45.993Z,99.90
2018-08-11T09:26:40.803Z,99.90
2018-08-11T09:31:35.421Z,99.90
2018-08-11T09:36:30.176Z,99.90
2018-08-11T09:41:24.831Z,99.90
2018-08-11T09:46:19.481Z,99.90
2018-08-11T09:51:14.159Z,99.90
2018-08-11T09:56:09.017Z,99.90
2018-08-11T10:01:08.833Z,99.90
2018-08-11T10:06:03.503Z,99.90
2018-08-11T10:10:58.195Z,99.90
2018-08-11T10:15:52.965Z,99.90
2018-08-11T10:20:47.671Z,99.90
2018-08-11T10:25:42.412Z,99.90
2018-08-11T10:30:37.024Z,99.90
2018-08-11T10:35:31.679Z,99.90
2018-08-11T10:40:26.328Z,99.10
2018-08-11T10:45:20.946Z,99.80
2018-08-11T10:50:15.566Z,97.70
2018-08-11T10:55:10.237Z,98.50
2018-08-11T11:00:05.134Z,97.70
2018-08-11T11:04:59.728Z,98.30
2018-08-11T11:09:54.340Z,97.50
2018-08-11T11:14:48.991Z,97.70
2018-08-11T11:19:43.621Z,97.60
2018-08-11T11:24:38.251Z,97.30
2018-08-11T11:29:33.119Z,97.40
2018-08-11T11:34:27.772Z,96.20
2018-08-11T11:39:22.353Z,95.10
2018-08-11T11:44:17.066Z,94.90
2018-08-11T11:49:11.998Z,95.40
2018-08-11T11:54:07.283Z,96.50
2018-08-11T11:59:01.972Z,94.20
2018-08-11T12:03:56.697Z,92.50
2018-08-11T12:08:51.291Z,90.60
2018-08-11T12:13:45.837Z,94.60
2018-08-11T12:18:40.474Z,92.50
2018-08-11T12:23:35.119Z,94.00
2018-08-11T12:28:29.749Z,92.90
2018-08-11T12:33:24.358Z,90.50
2018-08-11T12:38:18.961Z,85.60
2018-08-11T12:43:13.608Z,90.80
2018-08-11T12:48:08.530Z,92.60
2018-08-11T12:53:03.132Z,86.00
2018-08-11T12:57:57.706Z,89.50
2018-08-11T13:02:52.354Z,90.80
2018-08-11T13:07:46.925Z,91.00
2018-08-11T13:12:41.590Z,87.20
2018-08-11T13:17:36.186Z,91.40
2018-08-11T13:22:30.919Z,87.90
2018-08-11T13:27:25.495Z,87.90
2018-08-11T13:32:20.107Z,88.20
2018-08-11T13:37:15.106Z,89.00
2018-08-11T13:42:09.699Z,86.90
2018-08-11T13:47:04.328Z,90.30
2018-08-11T13:51:59.053Z,90.50
2018-08-11T13:56:53.713Z,87.40
2018-08-11T14:01:48.430Z,85.80
2018-08-11T14:06:43.140Z,83.40
2018-08-11T14:11:37.748Z,83.00
2018-08-11T14:16:32.496Z,86.40
2018-08-11T14:21:27.155Z,85.10
2018-08-11T14:26:21.882Z,86.10
2018-08-11T14:31:16.555Z,90.60
2018-08-11T14:36:11.196Z,87.20
2018-08-11T14:41:06.151Z,84.60
2018-08-11T14:46:00.815Z,84.60
2018-08-11T14:50:55.472Z,85.80
2018-08-11T14:55:50.110Z,84.00
2018-08-11T15:00:44.799Z,83.30
2018-08-11T15:05:39.497Z,86.90
2018-08-11T15:10:34.110Z,90.20
2018-08-11T15:15:29.146Z,84.30
2018-08-11T15:20:23.866Z,84.60
2018-08-11T15:25:18.596Z,82.50
2018-08-11T15:30:13.384Z,83.30
2018-08-11T15:35:09.055Z,90.40
2018-08-11T15:40:04.008Z,90.60
2018-08-11T15:44:58.763Z,92.40
2018-08-11T15:49:53.449Z,91.10
2018-08-11T15:54:48.202Z,92.70
2018-08-11T15:59:42.900Z,92.30
2018-08-11T16:04:40.481Z,93.30
2018-08-11T16:09:35.822Z,92.70
2018-08-11T16:14:31.792Z,91.60
2018-08-11T16:19:31.620Z,89.60
2018-08-11T16:24:32.238Z,92.00
2018-08-11T16:29:27.458Z,93.30
2018-08-11T16:34:22.232Z,93.50
2018-08-11T16:39:18.266Z,93.00
2018-08-11T16:44:20.433Z,93.20
2018-08-11T16:54:24.254Z,94.40
2018-08-11T16:59:19.855Z,94.10
2018-08-11T17:04:15.101Z,93.30
2018-08-11T17:09:11.853Z,94.20
2018-08-11T17:14:07.107Z,94.40
2018-08-11T17:19:01.827Z,94.90
2018-08-11T17:23:56.509Z,95.30
2018-08-11T17:28:51.316Z,94.90
2018-08-11T17:33:46.023Z,95.60
2018-08-11T17:38:40.891Z,95.50
2018-08-11T17:43:35.672Z,96.60
2018-08-11T17:48:30.466Z,96.00
2018-08-11T17:53:25.136Z,95.90
2018-08-11T17:58:19.841Z,96.10
2018-08-11T18:03:14.645Z,96.10
2018-08-11T18:08:09.704Z,96.50
2018-08-11T18:13:04.549Z,97.20
2018-08-11T18:17:59.400Z,97.30
2018-08-11T18:22:54.048Z,95.50
2018-08-11T18:27:48.705Z,97.00
2018-08-11T18:32:43.453Z,97.60
2018-08-11T18:37:38.223Z,97.60
2018-08-11T18:42:33.020Z,98.60
2018-08-11T18:47:27.914Z,98.40
2018-08-11T18:52:22.562Z,99.30
2018-08-11T18:57:17.294Z,99.30
2018-08-11T19:02:11.941Z,99.60
2018-08-11T19:07:06.672Z,99.90
2018-08-11T19:12:01.352Z,99.90
2018-08-11T19:16:56.005Z,99.90
2018-08-11T19:21:50.620Z,99.90
2018-08-11T19:26:45.537Z,99.90
2018-08-11T19:31:40.299Z,99.90
2018-08-11T19:36:34.999Z,99.90
2018-08-11T19:41:29.749Z,99.90
2018-08-11T19:46:24.441Z,99.90
2018-08-11T19:51:19.286Z,99.90
2018-08-11T19:56:14.029Z,99.90
2018-08-11T20:01:08.680Z,99.90
2018-08-11T20:06:03.475Z,99.90
2018-08-11T20:10:58.077Z,99.90
2018-08-11T20:15:52.736Z,99.90
2018-08-11T20:20:47.397Z,99.90
2018-08-11T20:25:42.223Z,99.90
2018-08-11T20:30:36.826Z,99.90
2018-08-11T20:35:31.615Z,99.90
2018-08-11T20:40:26.404Z,99.90
2018-08-11T20:45:21.129Z,99.90
2018-08-11T20:50:15.862Z,99.90
2018-08-11T20:55:10.629Z,99.90
2018-08-11T21:00:09.631Z,99.90
2018-08-11T21:05:06.308Z,99.90
2018-08-11T21:10:00.936Z,99.90
2018-08-11T21:14:55.671Z,99.90
2018-08-11T21:19:50.417Z,99.90
2018-08-11T21:24:45.131Z,99.90
2018-08-11T21:29:40.025Z,99.90
2018-08-11T21:34:34.742Z,99.90
2018-08-11T21:39:29.523Z,99.90
2018-08-11T21:44:24.331Z,99.90
2018-08-11T21:49:19.279Z,99.90
2018-08-11T21:54:14.092Z,99.90
2018-08-11T21:59:08.924Z,99.90
2018-08-11T22:04:04.453Z,99.90
2018-08-11T22:08:59.309Z,99.90
2018-08-11T22:13:54.129Z,99.90
2018-08-11T22:18:48.960Z,99.90
2018-08-11T22:23:43.760Z,99.90
2018-08-11T22:28:38.503Z,99.90
2018-08-11T22:33:33.343Z,99.90
2018-08-11T22:38:28.085Z,99.90
2018-08-11T22:43:22.859Z,99.90
2018-08-11T22:48:17.598Z,99.90
2018-08-11T22:53:12.378Z,99.90
2018-08-11T22:58:10.370Z,99.90
2018-08-11T23:03:05.486Z,99.90
2018-08-11T23:08:00.175Z,99.90
2018-08-11T23:12:54.900Z,99.90
2018-08-11T23:17:50.626Z,99.90
2018-08-11T23:22:45.434Z,99.90
2018-08-11T23:27:40.179Z,99.90
2018-08-11T23:32:34.798Z,99.90
2018-08-11T23:37:29.519Z,99.90
2018-08-11T23:42:24.148Z,99.90
2018-08-11T23:47:18.838Z,99.90
2018-08-11T23:52:13.591Z,99.90
2018-08-11T23:57:08.404Z,99.90
